createdAt,value
2022-07-30T00:01:48.550Z,17.50
2022-07-30T00:04:27.679Z,17.50
2022-07-30T00:07:05.818Z,17.50
2022-07-30T00:09:43.971Z,17.50
2022-07-30T00:12:22.103Z,17.50
2022-07-30T00:15:00.315Z,17.50
2022-07-30T00:17:38.404Z,17.50
2022-07-30T00:20:17.219Z,17.50
2022-07-30T00:22:57.353Z,17.50
2022-07-30T00:25:35.593Z,17.50
2022-07-30T00:28:13.840Z,17.50
2022-07-30T00:30:54.983Z,18.00
2022-07-30T00:33:34.752Z,18.00
2022-07-30T00:36:12.879Z,17.50
2022-07-30T00:38:51.154Z,17.50
2022-07-30T00:41:29.423Z,17.50
2022-07-30T00:44:07.516Z,17.50
2022-07-30T00:46:45.626Z,17.50
2022-07-30T00:49:24.280Z,17.50
2022-07-30T00:52:02.444Z,17.50
2022-07-30T00:54:40.609Z,17.50
2022-07-30T00:57:18.707Z,17.50
2022-07-30T00:59:56.954Z,17.00
2022-07-30T01:02:35.329Z,17.50
2022-07-30T01:05:14.268Z,17.00
2022-07-30T01:07:52.483Z,17.00
2022-07-30T01:10:30.752Z,17.50
2022-07-30T01:13:09.562Z,17.50
2022-07-30T01:15:48.887Z,17.00
2022-07-30T01:18:50.348Z,17.00
2022-07-30T01:21:41.661Z,17.00
2022-07-30T01:24:40.280Z,17.00
2022-07-30T01:27:23.089Z,17.00
2022-07-30T01:30:05.964Z,17.00
2022-07-30T01:32:46.946Z,17.00
2022-07-30T01:35:30.261Z,17.00
2022-07-30T01:38:11.527Z,17.00
2022-07-30T01:40:53.328Z,17.00
2022-07-30T01:43:34.545Z,17.00
2022-07-30T01:46:16.677Z,17.00
2022-07-30T01:48:57.587Z,17.00
2022-07-30T01:51:37.914Z,17.00
2022-07-30T01:54:20.148Z,17.00
2022-07-30T01:57:02.854Z,17.00
2022-07-30T01:59:46.300Z,17.00
2022-07-30T02:02:24.640Z,17.00
2022-07-30T02:05:04.527Z,17.00
2022-07-30T02:08:04.150Z,17.00
2022-07-30T02:10:52.454Z,17.00
2022-07-30T02:13:34.289Z,17.00
2022-07-30T02:16:20.334Z,17.00
2022-07-30T02:19:16.532Z,17.00
2022-07-30T02:22:06.847Z,16.50
2022-07-30T02:24:51.403Z,17.00
2022-07-30T02:27:34.463Z,17.00
2022-07-30T02:30:16.968Z,17.00
2022-07-30T02:33:04.913Z,17.00
2022-07-30T02:35:43.044Z,17.00
2022-07-30T02:38:22.527Z,16.50
2022-07-30T02:41:04.532Z,16.50
2022-07-30T02:43:43.499Z,16.50
2022-07-30T02:46:25.181Z,16.50
2022-07-30T02:49:05.082Z,16.50
2022-07-30T02:51:43.786Z,16.50
2022-07-30T02:54:24.188Z,16.50
2022-07-30T02:57:04.462Z,16.50
2022-07-30T02:59:45.139Z,16.50
2022-07-30T03:02:25.641Z,16.00
2022-07-30T03:05:09.642Z,16.50
2022-07-30T03:07:48.848Z,16.50
2022-07-30T03:10:28.986Z,16.50
2022-07-30T03:13:09.721Z,16.50
2022-07-30T03:15:51.928Z,16.50
2022-07-30T03:18:36.512Z,16.50
2022-07-30T03:21:16.921Z,16.50
2022-07-30T03:23:58.648Z,16.50
2022-07-30T03:26:38.309Z,16.00
2022-07-30T03:29:21.770Z,16.00
2022-07-30T03:32:00.892Z,16.50
2022-07-30T03:34:39.539Z,16.50
2022-07-30T03:37:19.343Z,16.00
2022-07-30T03:39:58.469Z,16.50
2022-07-30T03:42:37.966Z,16.50
2022-07-30T03:45:17.051Z,16.50
2022-07-30T03:47:57.022Z,16.50
2022-07-30T03:50:40.251Z,16.50
2022-07-30T03:53:20.752Z,16.50
2022-07-30T03:56:02.676Z,16.50
2022-07-30T03:58:53.560Z,16.50
2022-07-30T04:01:32.398Z,16.50
2022-07-30T04:04:11.937Z,16.50
2022-07-30T04:06:50.177Z,16.50
2022-07-30T04:09:28.287Z,16.00
2022-07-30T04:12:06.822Z,16.00
2022-07-30T04:14:45.732Z,16.50
2022-07-30T04:17:41.319Z,16.50
2022-07-30T04:20:27.422Z,16.00
2022-07-30T04:23:07.195Z,16.00
2022-07-30T04:25:46.084Z,16.50
2022-07-30T04:28:24.452Z,16.00
2022-07-30T04:31:03.835Z,16.00
2022-07-30T04:33:45.164Z,16.50
2022-07-30T04:36:26.067Z,16.00
2022-07-30T04:39:04.729Z,16.00
2022-07-30T04:41:49.010Z,16.00
2022-07-30T04:44:31.324Z,16.00
2022-07-30T04:47:22.138Z,16.00
2022-07-30T04:50:12.016Z,16.00
2022-07-30T04:52:51.683Z,16.00
2022-07-30T04:55:30.656Z,16.00
2022-07-30T04:58:12.351Z,16.00
2022-07-30T05:00:53.256Z,16.00
2022-07-30T05:03:34.342Z,16.00
2022-07-30T05:06:13.216Z,16.00
2022-07-30T05:08:51.665Z,16.50
2022-07-30T05:11:29.933Z,16.00
2022-07-30T05:14:08.057Z,16.00
2022-07-30T05:16:47.310Z,16.50
2022-07-30T05:19:25.537Z,16.50
2022-07-30T05:22:06.713Z,16.50
2022-07-30T05:24:44.998Z,16.50
2022-07-30T05:27:23.147Z,16.50
2022-07-30T05:30:01.302Z,16.00
2022-07-30T05:32:41.171Z,16.00
2022-07-30T05:35:19.740Z,16.00
2022-07-30T05:37:58.948Z,16.50
2022-07-30T05:40:37.006Z,16.50
2022-07-30T05:43:17.815Z,16.50
2022-07-30T05:45:55.977Z,16.00
2022-07-30T05:48:35.815Z,16.00
2022-07-30T05:51:13.939Z,16.00
2022-07-30T05:53:52.272Z,16.00
2022-07-30T05:56:43.350Z,16.50
2022-07-30T05:59:21.876Z,16.00
2022-07-30T06:02:12.215Z,16.00
2022-07-30T06:05:04.277Z,16.00
2022-07-30T06:07:42.442Z,16.00
2022-07-30T06:10:21.128Z,16.00
2022-07-30T06:12:59.618Z,16.00
2022-07-30T06:15:37.757Z,16.00
2022-07-30T06:18:15.867Z,16.00
2022-07-30T06:20:55.861Z,16.50
2022-07-30T06:23:36.871Z,16.50
2022-07-30T06:26:17.750Z,16.50
2022-07-30T06:28:55.830Z,16.50
2022-07-30T06:31:34.492Z,16.00
2022-07-30T06:34:12.584Z,16.50
2022-07-30T06:36:51.257Z,16.50
2022-07-30T06:39:57.979Z,16.50
2022-07-30T06:42:30.127Z,16.50
2022-07-30T06:45:14.474Z,16.50
2022-07-30T06:48:05.865Z,16.50
2022-07-30T06:50:44.082Z,16.50
2022-07-30T06:53:22.252Z,16.50
2022-07-30T06:56:13.608Z,17.00
2022-07-30T06:58:51.686Z,17.00
2022-07-30T07:01:43.306Z,17.00
2022-07-30T07:04:22.030Z,17.00
2022-07-30T07:07:00.472Z,17.00
2022-07-30T07:09:51.232Z,17.00
2022-07-30T07:12:42.186Z,17.00
2022-07-30T07:15:22.338Z,17.50
2022-07-30T07:18:12.955Z,17.50
2022-07-30T07:20:51.094Z,17.50
2022-07-30T07:23:41.722Z,17.50
2022-07-30T07:26:21.727Z,17.50
2022-07-30T07:29:04.764Z,17.50
2022-07-30T07:32:06.274Z,17.50
2022-07-30T07:34:41.796Z,17.50
2022-07-30T07:37:20.162Z,17.50
2022-07-30T07:39:58.877Z,17.50
2022-07-30T07:42:36.913Z,17.50
2022-07-30T07:45:15.250Z,17.50
2022-07-30T07:47:56.069Z,17.50
2022-07-30T07:50:47.259Z,17.50
2022-07-30T07:53:34.646Z,17.50
2022-07-30T07:56:14.393Z,17.50
2022-07-30T07:58:56.650Z,17.50
2022-07-30T08:01:36.354Z,17.50
2022-07-30T08:04:32.657Z,17.50
2022-07-30T08:07:22.751Z,17.50
2022-07-30T08:10:08.463Z,17.50
2022-07-30T08:12:46.607Z,18.00
2022-07-30T08:15:39.683Z,18.00
2022-07-30T08:18:17.785Z,18.50
2022-07-30T08:20:56.148Z,18.50
2022-07-30T08:23:34.300Z,18.50
2022-07-30T08:26:13.925Z,18.50
2022-07-30T08:28:52.948Z,19.00
2022-07-30T08:31:32.815Z,19.00
2022-07-30T08:34:10.966Z,19.00
2022-07-30T08:36:49.078Z,19.00
2022-07-30T08:39:27.220Z,19.00
2022-07-30T08:42:06.049Z,18.50
2022-07-30T08:44:46.941Z,18.50
2022-07-30T08:47:32.570Z,18.50
2022-07-30T08:50:23.205Z,18.50
2022-07-30T08:53:03.003Z,18.50
2022-07-30T08:55:42.222Z,18.50
2022-07-30T08:58:31.142Z,18.50
2022-07-30T09:01:09.479Z,18.50
2022-07-30T09:03:47.617Z,18.50
2022-07-30T09:06:25.788Z,18.50
2022-07-30T09:09:04.185Z,18.50
2022-07-30T09:11:42.588Z,18.50
2022-07-30T09:14:20.902Z,18.50
2022-07-30T09:16:59.607Z,18.50
2022-07-30T09:19:37.920Z,18.50
2022-07-30T09:22:17.417Z,18.50
2022-07-30T09:25:08.910Z,18.50
2022-07-30T09:27:59.999Z,18.50
2022-07-30T09:30:54.712Z,18.50
2022-07-30T09:33:48.530Z,18.50
2022-07-30T09:36:33.335Z,18.50
2022-07-30T09:39:35.069Z,18.50
2022-07-30T09:42:32.273Z,18.50
2022-07-30T09:45:14.966Z,18.50
2022-07-30T09:47:53.212Z,18.50
2022-07-30T09:50:31.479Z,18.50
2022-07-30T09:53:12.257Z,18.50
2022-07-30T09:55:51.219Z,18.50
2022-07-30T09:58:45.653Z,18.50
2022-07-30T10:01:25.218Z,19.00
2022-07-30T10:04:29.905Z,19.00
2022-07-30T10:07:24.893Z,19.00
2022-07-30T10:10:06.193Z,19.00
2022-07-30T10:12:47.022Z,19.50
2022-07-30T10:15:37.540Z,19.50
2022-07-30T10:18:18.219Z,19.50
2022-07-30T10:21:10.563Z,19.50
2022-07-30T10:24:01.943Z,19.50
2022-07-30T10:26:56.393Z,19.50
2022-07-30T10:29:46.056Z,19.50
2022-07-30T10:32:27.467Z,20.00
2022-07-30T10:35:11.324Z,20.00
2022-07-30T10:37:51.299Z,19.50
2022-07-30T10:40:41.189Z,19.50
2022-07-30T10:44:02.365Z,19.50
2022-07-30T10:46:46.326Z,20.00
2022-07-30T10:49:25.901Z,19.50
2022-07-30T10:52:04.144Z,20.00
2022-07-30T10:54:47.776Z,20.00
2022-07-30T10:57:32.195Z,20.00
2022-07-30T11:00:13.575Z,20.00
2022-07-30T11:03:22.172Z,19.50
2022-07-30T11:06:24.568Z,19.50
2022-07-30T11:09:41.027Z,20.00
2022-07-30T11:12:41.964Z,20.00
2022-07-30T11:15:23.679Z,20.00
2022-07-30T11:18:12.881Z,20.00
2022-07-30T11:21:20.637Z,20.00
2022-07-30T11:24:02.161Z,20.00
2022-07-30T11:26:43.877Z,20.00
2022-07-30T11:29:50.459Z,19.50
2022-07-30T11:32:35.393Z,20.00
2022-07-30T11:35:34.466Z,20.00
2022-07-30T11:38:18.843Z,19.50
2022-07-30T11:40:57.162Z,19.50
2022-07-30T11:43:37.039Z,19.00
2022-07-30T11:46:29.582Z,19.00
2022-07-30T11:49:10.826Z,19.00
2022-07-30T11:51:51.110Z,19.00
2022-07-30T11:54:31.518Z,18.50
2022-07-30T11:57:09.538Z,18.50
2022-07-30T11:59:58.254Z,18.50
2022-07-30T12:02:36.493Z,19.00
2022-07-30T12:05:15.338Z,19.00
2022-07-30T12:07:59.962Z,19.00
2022-07-30T12:10:41.699Z,19.00
2022-07-30T12:13:19.926Z,19.00
2022-07-30T12:16:18.398Z,19.00
2022-07-30T12:19:01.118Z,19.00
2022-07-30T12:21:39.240Z,19.00
2022-07-30T12:24:24.149Z,19.00
2022-07-30T12:27:09.221Z,19.00
2022-07-30T12:29:47.479Z,19.00
2022-07-30T12:32:25.833Z,19.00
2022-07-30T12:35:04.760Z,19.00
2022-07-30T12:38:04.497Z,18.50
2022-07-30T12:41:06.360Z,19.00
2022-07-30T12:43:57.897Z,19.00
2022-07-30T12:47:01.383Z,19.00
2022-07-30T12:49:49.434Z,19.00
2022-07-30T12:52:35.925Z,19.00
2022-07-30T12:55:14.412Z,19.00
2022-07-30T12:58:08.301Z,18.50
2022-07-30T13:00:52.587Z,18.50
2022-07-30T13:03:39.809Z,18.50
2022-07-30T13:06:25.729Z,18.50
2022-07-30T13:09:04.626Z,18.50
2022-07-30T13:11:48.983Z,18.50
2022-07-30T13:14:27.854Z,18.50
2022-07-30T13:17:07.278Z,18.50
2022-07-30T13:19:45.411Z,18.50
2022-07-30T13:22:23.739Z,18.50
2022-07-30T13:25:01.897Z,18.50
2022-07-30T13:27:40.205Z,19.00
2022-07-30T13:30:15.767Z,19.00
2022-07-30T13:32:53.878Z,19.00
2022-07-30T13:35:32.090Z,19.00
2022-07-30T13:38:11.702Z,19.00
2022-07-30T13:40:49.841Z,19.00
2022-07-30T13:43:28.043Z,18.50
2022-07-30T13:46:06.536Z,18.50
2022-07-30T13:48:45.064Z,19.00
2022-07-30T13:51:23.314Z,19.00
2022-07-30T13:54:01.408Z,19.00
2022-07-30T13:56:41.130Z,19.00
2022-07-30T13:59:19.404Z,19.00
2022-07-30T14:01:57.688Z,18.50
2022-07-30T14:04:35.836Z,19.00
2022-07-30T14:07:13.944Z,19.00
2022-07-30T14:09:54.494Z,19.00
2022-07-30T14:12:33.397Z,19.00
2022-07-30T14:15:17.401Z,18.50
2022-07-30T14:17:56.771Z,19.00
2022-07-30T14:20:35.764Z,19.00
2022-07-30T14:23:13.878Z,19.00
2022-07-30T14:25:54.917Z,19.00
2022-07-30T14:28:34.545Z,19.00
2022-07-30T14:31:12.583Z,18.50
2022-07-30T14:33:50.768Z,18.50
2022-07-30T14:36:30.266Z,19.00
2022-07-30T14:39:08.428Z,18.50
2022-07-30T14:41:46.684Z,18.50
2022-07-30T14:44:25.110Z,18.50
2022-07-30T14:47:03.840Z,18.50
2022-07-30T14:49:42.122Z,18.00
2022-07-30T14:52:20.254Z,18.50
2022-07-30T14:54:58.367Z,18.00
2022-07-30T14:57:37.194Z,18.50
2022-07-30T15:00:15.985Z,18.50
2022-07-30T15:02:55.821Z,18.50
2022-07-30T15:05:33.927Z,18.50
2022-07-30T15:08:12.151Z,18.50
2022-07-30T15:10:51.201Z,18.50
2022-07-30T15:13:29.396Z,18.50
2022-07-30T15:16:10.020Z,18.50
2022-07-30T15:18:49.843Z,18.50
2022-07-30T15:21:28.011Z,18.50
2022-07-30T15:24:06.455Z,18.50
2022-07-30T15:26:44.727Z,18.50
2022-07-30T15:29:24.312Z,18.50
2022-07-30T15:32:03.289Z,18.50
2022-07-30T15:34:41.555Z,18.50
2022-07-30T15:37:19.693Z,19.00
2022-07-30T15:39:57.787Z,19.00
2022-07-30T15:42:35.948Z,19.00
2022-07-30T15:45:17.843Z,19.00
2022-07-30T15:47:57.152Z,19.00
2022-07-30T15:50:35.229Z,19.00
2022-07-30T15:53:17.462Z,19.50
2022-07-30T15:55:55.778Z,19.50
2022-07-30T15:58:34.375Z,19.50
2022-07-30T16:01:12.927Z,19.50
2022-07-30T16:03:51.068Z,19.50
2022-07-30T16:06:29.391Z,19.50
2022-07-30T16:09:07.513Z,19.50
2022-07-30T16:11:46.834Z,19.00
2022-07-30T16:14:25.393Z,19.50
2022-07-30T16:17:03.844Z,19.50
2022-07-30T16:19:44.839Z,19.50
2022-07-30T16:22:24.051Z,19.50
2022-07-30T16:25:02.496Z,19.50
2022-07-30T16:27:40.643Z,19.00
2022-07-30T16:30:18.896Z,19.00
2022-07-30T16:32:57.092Z,19.00
2022-07-30T16:35:35.220Z,19.00
2022-07-30T16:38:27.559Z,19.00
2022-07-30T16:41:06.488Z,19.00
2022-07-30T16:43:46.505Z,19.00
2022-07-30T16:46:24.683Z,18.50
2022-07-30T16:49:03.394Z,18.50
2022-07-30T16:51:42.944Z,19.00
2022-07-30T16:54:21.541Z,18.50
2022-07-30T16:56:59.858Z,18.50
2022-07-30T16:59:44.575Z,18.50
2022-07-30T17:02:22.810Z,18.50
2022-07-30T17:05:00.863Z,18.50
2022-07-30T17:07:38.999Z,18.00
2022-07-30T17:10:23.503Z,18.50
2022-07-30T17:13:04.179Z,18.50
2022-07-30T17:15:42.279Z,18.50
2022-07-30T17:18:20.514Z,18.50
2022-07-30T17:20:58.726Z,18.50
2022-07-30T17:23:36.902Z,18.50
2022-07-30T17:26:15.607Z,18.00
2022-07-30T17:33:14.099Z,18.50
2022-07-30T17:35:52.658Z,18.50
2022-07-30T17:38:30.916Z,18.00
2022-07-30T17:41:13.313Z,18.00
2022-07-30T17:43:51.675Z,18.00
2022-07-30T17:46:31.000Z,18.00
2022-07-30T17:49:09.222Z,18.00
2022-07-30T17:51:47.467Z,18.50
2022-07-30T17:54:26.188Z,18.50
2022-07-30T17:57:04.479Z,18.00
2022-07-30T17:59:42.576Z,18.50
2022-07-30T18:02:27.500Z,18.00
2022-07-30T18:05:07.453Z,18.50
2022-07-30T18:07:45.678Z,18.00
2022-07-30T18:10:24.237Z,18.00
2022-07-30T18:13:26.090Z,18.00
2022-07-30T18:16:01.233Z,18.00
2022-07-30T18:18:40.101Z,18.00
2022-07-30T18:21:18.386Z,18.50
2022-07-30T18:23:56.978Z,18.50
2022-07-30T18:26:38.699Z,18.00
2022-07-30T18:29:17.007Z,18.00
2022-07-30T18:31:55.081Z,18.00
2022-07-30T18:34:33.253Z,18.00
2022-07-30T18:37:11.382Z,18.00
2022-07-30T18:39:52.835Z,18.50
2022-07-30T18:42:32.763Z,18.50
2022-07-30T18:45:14.071Z,18.50
2022-07-30T18:47:52.770Z,18.50
2022-07-30T18:50:31.132Z,18.00
2022-07-30T18:53:15.731Z,18.00
2022-07-30T18:55:54.630Z,18.00
2022-07-30T18:58:33.066Z,18.50
2022-07-30T19:01:11.671Z,18.00
2022-07-30T19:03:50.140Z,18.00
2022-07-30T19:06:26.028Z,17.50
2022-07-30T19:09:06.015Z,18.00
2022-07-30T19:11:51.389Z,18.00
2022-07-30T19:14:29.917Z,18.00
2022-07-30T19:17:13.679Z,18.50
2022-07-30T19:19:52.615Z,18.00
2022-07-30T19:22:30.845Z,18.00
2022-07-30T19:25:10.674Z,18.00
2022-07-30T19:27:49.128Z,17.50
2022-07-30T19:30:27.942Z,18.00
2022-07-30T19:33:15.430Z,18.00
2022-07-30T19:35:54.328Z,18.00
2022-07-30T19:38:33.682Z,18.00
2022-07-30T19:41:13.957Z,18.00
2022-07-30T19:43:57.759Z,18.50
2022-07-30T19:46:37.345Z,18.50
2022-07-30T19:49:16.019Z,18.50
2022-07-30T19:52:10.360Z,18.00
2022-07-30T19:54:51.752Z,18.50
2022-07-30T19:57:53.350Z,18.50
2022-07-30T20:00:28.472Z,18.50
2022-07-30T20:03:09.315Z,18.50
2022-07-30T20:05:54.847Z,18.50
2022-07-30T20:08:38.480Z,18.50
2022-07-30T20:11:21.152Z,18.00
2022-07-30T20:14:15.517Z,18.00
2022-07-30T20:16:54.456Z,18.00
2022-07-30T20:19:36.025Z,18.00
2022-07-30T20:22:14.933Z,18.50
2022-07-30T20:24:53.641Z,18.50
2022-07-30T20:27:35.803Z,18.50
2022-07-30T20:30:15.051Z,18.50
2022-07-30T20:32:53.287Z,18.50
2022-07-30T20:35:31.468Z,18.00
2022-07-30T20:38:10.418Z,18.00
2022-07-30T20:40:48.685Z,18.00
2022-07-30T20:43:28.621Z,18.00
2022-07-30T20:46:12.167Z,17.50
2022-07-30T20:48:52.934Z,18.00
2022-07-30T20:51:33.747Z,17.50
2022-07-30T20:54:12.045Z,17.50
2022-07-30T20:56:50.483Z,17.50
2022-07-30T20:59:30.039Z,17.50
2022-07-30T21:02:09.981Z,18.00
2022-07-30T21:04:59.221Z,17.50
2022-07-30T21:07:38.016Z,17.50
2022-07-30T21:10:16.788Z,17.50
2022-07-30T21:13:03.554Z,17.50
2022-07-30T21:15:45.570Z,17.50
2022-07-30T21:18:40.136Z,17.50
2022-07-30T21:21:38.181Z,17.50
2022-07-30T21:24:20.592Z,17.50
2022-07-30T21:26:59.342Z,17.50
2022-07-30T21:29:38.868Z,17.50
2022-07-30T21:32:18.355Z,17.50
2022-07-30T21:34:56.847Z,17.50
2022-07-30T21:37:37.041Z,17.50
2022-07-30T21:40:15.279Z,17.00
2022-07-30T21:42:55.058Z,17.00
2022-07-30T21:45:37.963Z,17.00
2022-07-30T21:48:17.125Z,17.00
2022-07-30T21:50:57.062Z,17.00
2022-07-30T21:53:44.784Z,17.00
2022-07-30T21:56:23.963Z,17.00
2022-07-30T21:59:03.555Z,17.00
2022-07-30T22:01:41.917Z,17.00
2022-07-30T22:04:27.292Z,17.00
2022-07-30T22:07:05.513Z,17.00
2022-07-30T22:09:44.090Z,17.00
2022-07-30T22:12:22.260Z,17.00
2022-07-30T22:15:09.351Z,17.00
2022-07-30T22:17:58.287Z,17.00
2022-07-30T22:20:39.334Z,17.00
2022-07-30T22:23:18.049Z,17.00
2022-07-30T22:26:00.083Z,16.50
2022-07-30T22:28:38.480Z,16.50
2022-07-30T22:31:16.936Z,16.50
2022-07-30T22:33:55.165Z,16.50
2022-07-30T22:36:35.828Z,16.50
2022-07-30T22:39:13.972Z,16.50
2022-07-30T22:41:52.122Z,16.50
2022-07-30T22:44:30.227Z,16.50
2022-07-30T22:47:09.433Z,16.50
2022-07-30T22:49:58.285Z,16.50
2022-07-30T22:52:55.324Z,16.50
2022-07-30T22:55:40.352Z,16.50
2022-07-30T22:58:19.692Z,16.50
2022-07-30T23:01:00.437Z,16.50
2022-07-30T23:03:38.608Z,16.50
2022-07-30T23:06:20.679Z,16.50
2022-07-30T23:08:59.222Z,16.50
2022-07-30T23:11:38.915Z,16.50
2022-07-30T23:14:17.029Z,16.00
2022-07-30T23:16:56.555Z,16.50
2022-07-30T23:19:34.691Z,16.50
2022-07-30T23:22:12.857Z,16.50
2022-07-30T23:24:51.623Z,16.00
2022-07-30T23:27:29.786Z,16.00
2022-07-30T23:30:10.084Z,16.50
2022-07-30T23:32:48.195Z,16.00
2022-07-30T23:35:26.296Z,16.00
2022-07-30T23:38:04.479Z,16.50
2022-07-30T23:40:42.678Z,16.00
2022-07-30T23:43:20.848Z,16.00
2022-07-30T23:45:59.098Z,16.00
2022-07-30T23:48:37.783Z,16.00
2022-07-30T23:51:16.051Z,16.00
2022-07-30T23:53:54.222Z,16.50
2022-07-30T23:56:32.577Z,16.50
2022-07-30T23:59:12.426Z,16.50
